createdAt,value
2018-06-23T00:00:12.583Z,13.70
2018-06-23T00:04:15.911Z,13.60
2018-06-23T00:08:19.264Z,13.60
2018-06-23T00:12:22.565Z,13.60
2018-06-23T00:16:25.903Z,13.60
2018-06-23T00:20:29.262Z,13.60
2018-06-23T00:24:32.583Z,13.50
2018-06-23T00:28:35.939Z,13.50
2018-06-23T00:32:39.303Z,13.40
2018-06-23T00:36:42.623Z,13.40
2018-06-23T00:40:45.952Z,13.30
2018-06-23T00:44:49.423Z,13.30
2018-06-23T00:48:52.739Z,13.20
2018-06-23T00:52:56.084Z,13.20
2018-06-23T00:56:59.423Z,13.10
2018-06-23T01:01:02.758Z,13.10
2018-06-23T01:05:06.147Z,13.00
2018-06-23T01:09:10.622Z,13.00
2018-06-23T01:13:13.959Z,12.90
2018-06-23T01:17:17.337Z,12.90
2018-06-23T01:21:20.720Z,12.90
2018-06-23T01:25:24.821Z,12.90
2018-06-23T01:29:28.275Z,12.80
2018-06-23T01:37:34.733Z,12.80
2018-06-23T01:41:38.153Z,12.80
2018-06-23T01:45:41.497Z,12.80
2018-06-23T01:49:44.845Z,12.80
2018-06-23T01:53:48.312Z,12.80
2018-06-23T01:57:51.676Z,12.80
2018-06-23T02:01:55.091Z,12.80
2018-06-23T02:05:58.451Z,12.70
2018-06-23T02:10:01.799Z,12.70
2018-06-23T02:14:10.358Z,12.60
2018-06-23T02:18:19.059Z,12.60
2018-06-23T02:22:27.814Z,12.60
2018-06-23T02:26:36.628Z,12.60
2018-06-23T02:30:52.136Z,12.60
2018-06-23T02:34:59.920Z,12.60
2018-06-23T02:39:04.970Z,12.60
2018-06-23T02:43:08.352Z,12.50
2018-06-23T02:47:11.720Z,12.50
2018-06-23T02:51:15.135Z,12.50
2018-06-23T02:55:18.486Z,12.50
2018-06-23T02:59:21.860Z,12.50
2018-06-23T03:03:25.223Z,12.60
2018-06-23T03:07:28.608Z,12.50
2018-06-23T03:11:31.942Z,12.60
2018-06-23T03:15:35.335Z,12.60
2018-06-23T03:19:39.147Z,12.60
2018-06-23T03:23:42.504Z,12.60
2018-06-23T03:27:45.853Z,12.60
2018-06-23T03:31:49.233Z,12.60
2018-06-23T03:35:52.735Z,12.60
2018-06-23T03:39:56.092Z,12.60
2018-06-23T03:43:59.425Z,12.60
2018-06-23T03:48:02.937Z,12.60
2018-06-23T03:52:06.313Z,12.60
2018-06-23T03:56:09.656Z,12.60
2018-06-23T04:00:12.978Z,12.60
2018-06-23T04:04:16.343Z,12.60
2018-06-23T04:08:19.684Z,12.60
2018-06-23T04:16:26.040Z,12.60
2018-06-23T04:20:29.590Z,12.50
2018-06-23T04:24:32.993Z,12.50
2018-06-23T04:28:36.335Z,12.50
2018-06-23T04:32:39.728Z,12.50
2018-06-23T04:36:43.057Z,12.50
2018-06-23T04:40:46.578Z,12.50
2018-06-23T04:44:49.897Z,12.60
2018-06-23T04:48:53.235Z,12.50
2018-06-23T04:52:56.570Z,12.50
2018-06-23T04:56:59.871Z,12.50
2018-06-23T05:01:03.235Z,12.60
2018-06-23T05:05:06.634Z,12.60
2018-06-23T05:09:10.028Z,12.60
2018-06-23T05:13:13.365Z,12.60
2018-06-23T05:17:16.690Z,12.60
2018-06-23T05:21:20.096Z,12.60
2018-06-23T05:25:23.420Z,12.60
2018-06-23T05:29:26.771Z,12.70
2018-06-23T05:33:30.105Z,12.70
2018-06-23T05:37:33.443Z,12.70
2018-06-23T05:41:36.798Z,12.70
2018-06-23T05:45:40.315Z,12.70
2018-06-23T05:49:43.644Z,12.70
2018-06-23T05:53:46.983Z,12.70
2018-06-23T05:57:50.303Z,12.80
2018-06-23T06:01:53.791Z,12.80
2018-06-23T06:06:21.548Z,12.80
2018-06-23T06:10:24.887Z,12.90
2018-06-23T06:14:28.311Z,12.90
2018-06-23T06:18:31.709Z,12.90
2018-06-23T06:22:37.422Z,13.00
2018-06-23T06:26:40.771Z,13.00
2018-06-23T06:30:44.110Z,13.00
2018-06-23T06:34:47.581Z,13.10
2018-06-23T06:38:50.944Z,13.10
2018-06-23T06:42:54.266Z,13.20
2018-06-23T06:46:58.147Z,13.20
2018-06-23T06:51:01.515Z,13.20
2018-06-23T06:55:04.938Z,13.30
2018-06-23T06:59:08.302Z,13.20
2018-06-23T07:03:11.610Z,13.30
2018-06-23T07:07:14.956Z,13.30
2018-06-23T07:11:18.295Z,13.40
2018-06-23T07:15:21.623Z,13.50
2018-06-23T07:19:25.067Z,13.50
2018-06-23T07:23:28.450Z,13.60
2018-06-23T07:27:31.750Z,13.70
2018-06-23T07:31:35.332Z,13.90
2018-06-23T07:35:38.684Z,14.00
2018-06-23T07:39:42.047Z,14.20
2018-06-23T07:43:45.463Z,14.30
2018-06-23T07:47:48.792Z,14.30
2018-06-23T07:51:52.146Z,14.30
2018-06-23T07:55:55.498Z,14.40
2018-06-23T07:59:58.835Z,14.40
2018-06-23T08:04:02.150Z,14.40
2018-06-23T08:08:05.580Z,14.50
2018-06-23T08:12:08.926Z,14.60
2018-06-23T08:16:12.268Z,14.80
2018-06-23T08:24:18.677Z,15.10
2018-06-23T08:28:21.995Z,15.20
2018-06-23T08:32:25.336Z,15.20
2018-06-23T08:36:28.686Z,15.30
2018-06-23T08:40:32.027Z,15.30
2018-06-23T08:44:35.368Z,15.30
2018-06-23T08:48:38.688Z,15.40
2018-06-23T08:52:42.036Z,15.50
2018-06-23T08:56:45.387Z,15.60
2018-06-23T09:00:48.860Z,15.70
2018-06-23T09:04:52.169Z,15.80
2018-06-23T09:08:55.512Z,15.90
2018-06-23T09:17:01.950Z,16.00
2018-06-23T09:21:05.406Z,16.00
2018-06-23T09:25:08.748Z,16.00
2018-06-23T09:29:12.077Z,16.00
2018-06-23T09:33:15.418Z,16.00
2018-06-23T09:37:18.773Z,16.00
2018-06-23T09:41:28.475Z,16.20
2018-06-23T09:45:31.827Z,16.30
2018-06-23T09:49:35.165Z,16.40
2018-06-23T09:53:38.519Z,16.40
2018-06-23T09:57:41.860Z,16.50
2018-06-23T10:01:45.264Z,16.60
2018-06-23T10:05:48.567Z,16.70
2018-06-23T10:09:51.891Z,16.90
2018-06-23T10:13:55.235Z,17.00
2018-06-23T10:17:58.610Z,17.00
2018-06-23T10:22:01.948Z,17.00
2018-06-23T10:26:05.269Z,17.00
2018-06-23T10:30:08.668Z,17.00
2018-06-23T10:34:12.007Z,17.00
2018-06-23T10:38:15.398Z,17.10
2018-06-23T10:42:18.735Z,17.20
2018-06-23T10:46:22.162Z,17.20
2018-06-23T10:50:25.487Z,17.30
2018-06-23T10:54:28.831Z,17.40
2018-06-23T10:58:32.178Z,17.50
2018-06-23T11:02:35.552Z,17.60
2018-06-23T11:06:38.858Z,17.60
2018-06-23T11:10:42.176Z,17.70
2018-06-23T11:14:45.546Z,17.70
2018-06-23T11:18:48.902Z,17.70
2018-06-23T11:22:52.232Z,17.70
2018-06-23T11:26:55.684Z,17.80
2018-06-23T11:30:59.012Z,17.80
2018-06-23T11:35:02.345Z,18.00
2018-06-23T11:39:08.031Z,18.00
2018-06-23T11:43:11.368Z,18.00
2018-06-23T11:47:14.704Z,18.00
2018-06-23T11:51:18.121Z,18.00
2018-06-23T11:55:21.512Z,18.00
2018-06-23T11:59:24.887Z,18.10
2018-06-23T12:03:28.238Z,18.10
2018-06-23T12:07:31.610Z,18.10
2018-06-23T12:11:35.026Z,18.00
2018-06-23T12:15:38.383Z,18.00
2018-06-23T12:19:41.748Z,18.10
2018-06-23T12:23:45.094Z,18.00
2018-06-23T12:27:48.423Z,18.00
2018-06-23T12:31:51.762Z,17.90
2018-06-23T12:35:55.101Z,17.90
2018-06-23T12:39:58.414Z,17.90
2018-06-23T12:44:01.745Z,17.90
2018-06-23T12:48:05.723Z,17.90
2018-06-23T12:56:12.092Z,17.80
2018-06-23T13:00:15.439Z,17.80
2018-06-23T13:04:18.791Z,17.70
2018-06-23T13:08:22.127Z,17.70
2018-06-23T13:12:25.419Z,17.70
2018-06-23T13:16:28.752Z,17.70
2018-06-23T13:20:32.095Z,17.70
2018-06-23T13:24:35.420Z,17.80
2018-06-23T13:28:38.747Z,17.80
2018-06-23T13:32:42.067Z,17.80
2018-06-23T13:40:48.545Z,17.90
2018-06-23T13:44:51.887Z,18.10
2018-06-23T13:48:55.264Z,18.30
2018-06-23T13:52:58.583Z,18.50
2018-06-23T13:57:01.921Z,18.70
2018-06-23T14:01:05.360Z,18.80
2018-06-23T14:05:08.691Z,18.90
2018-06-23T14:09:13.294Z,19.00
2018-06-23T14:13:16.615Z,19.10
2018-06-23T14:17:19.955Z,19.10
2018-06-23T14:21:23.298Z,19.20
2018-06-23T14:25:26.640Z,19.10
2018-06-23T14:29:29.959Z,19.00
2018-06-23T14:33:33.281Z,18.90
2018-06-23T14:37:36.631Z,18.80
2018-06-23T14:41:40.084Z,18.70
2018-06-23T14:45:43.432Z,18.60
2018-06-23T14:49:46.776Z,18.60
2018-06-23T14:53:50.117Z,18.50
2018-06-23T14:57:53.450Z,18.50
2018-06-23T15:01:56.831Z,18.50
2018-06-23T15:06:02.128Z,18.50
2018-06-23T15:10:16.683Z,18.50
2018-06-23T15:14:19.984Z,18.40
2018-06-23T15:18:23.334Z,18.40
2018-06-23T15:22:26.699Z,18.30
2018-06-23T15:26:30.216Z,18.30
2018-06-23T15:30:33.559Z,18.30
2018-06-23T15:34:36.892Z,18.30
2018-06-23T15:38:40.229Z,18.20
2018-06-23T15:42:43.564Z,18.20
2018-06-23T15:46:46.910Z,18.20
2018-06-23T15:50:50.264Z,18.10
2018-06-23T15:54:53.586Z,18.10
2018-06-23T15:58:56.950Z,18.00
2018-06-23T16:03:00.279Z,18.00
2018-06-23T16:07:03.600Z,17.90
2018-06-23T16:11:06.963Z,17.90
2018-06-23T16:15:10.272Z,17.80
2018-06-23T16:19:13.602Z,17.80
2018-06-23T16:23:16.919Z,17.70
2018-06-23T16:27:20.232Z,17.70
2018-06-23T16:31:23.555Z,17.50
2018-06-23T16:35:27.385Z,17.50
2018-06-23T16:39:30.192Z,17.30
2018-06-23T16:43:33.528Z,17.20
2018-06-23T16:47:36.858Z,17.20
2018-06-23T16:51:40.194Z,17.10
2018-06-23T16:55:43.500Z,17.10
2018-06-23T16:59:46.819Z,17.00
2018-06-23T17:03:50.324Z,16.90
2018-06-23T17:07:53.550Z,16.90
2018-06-23T17:11:56.877Z,16.80
2018-06-23T17:16:00.164Z,16.80
2018-06-23T17:20:03.543Z,16.80
2018-06-23T17:24:06.878Z,16.80
2018-06-23T17:28:11.118Z,16.70
2018-06-23T17:32:14.486Z,16.70
2018-06-23T17:36:17.826Z,16.60
2018-06-23T17:40:21.123Z,16.60
2018-06-23T17:44:24.470Z,16.60
2018-06-23T17:48:27.783Z,16.50
2018-06-23T17:52:31.091Z,16.50
2018-06-23T17:56:34.421Z,16.40
2018-06-23T18:00:37.735Z,16.40
2018-06-23T18:04:41.128Z,16.30
2018-06-23T18:08:44.455Z,16.30
2018-06-23T18:12:47.780Z,16.30
2018-06-23T18:16:51.118Z,16.30
2018-06-23T18:20:54.508Z,16.20
2018-06-23T18:24:57.813Z,16.20
2018-06-23T18:29:01.155Z,16.20
2018-06-23T18:33:04.509Z,16.20
2018-06-23T18:37:07.823Z,16.20
2018-06-23T18:41:11.131Z,16.10
2018-06-23T18:45:14.696Z,16.10
2018-06-23T18:49:18.026Z,16.10
2018-06-23T18:53:21.415Z,16.10
2018-06-23T18:57:24.859Z,16.00
2018-06-23T19:01:28.550Z,16.00
2018-06-23T19:05:31.944Z,16.00
2018-06-23T19:09:35.336Z,16.00
2018-06-23T19:13:38.795Z,16.00
2018-06-23T19:17:42.162Z,16.00
2018-06-23T19:21:45.595Z,15.90
2018-06-23T19:25:48.929Z,15.90
2018-06-23T19:29:52.291Z,15.90
2018-06-23T19:33:55.626Z,15.80
2018-06-23T19:37:59.085Z,15.80
2018-06-23T19:42:02.451Z,15.70
2018-06-23T19:46:06.008Z,15.70
2018-06-23T19:50:09.451Z,15.70
2018-06-23T19:54:12.851Z,15.60
2018-06-23T19:58:16.189Z,15.60
2018-06-23T20:02:19.564Z,15.60
2018-06-23T20:06:22.883Z,15.50
2018-06-23T20:10:26.283Z,15.50
2018-06-23T20:14:29.611Z,15.40
2018-06-23T20:18:32.956Z,15.40
2018-06-23T20:22:36.265Z,15.40
2018-06-23T20:26:39.651Z,15.40
2018-06-23T20:30:42.975Z,15.30
2018-06-23T20:34:46.292Z,15.30
2018-06-23T20:38:49.610Z,15.20
2018-06-23T20:42:52.928Z,15.20
2018-06-23T20:46:56.265Z,15.20
2018-06-23T20:50:59.612Z,15.10
2018-06-23T20:55:02.981Z,15.10
2018-06-23T20:59:06.563Z,15.10
2018-06-23T21:03:10.123Z,15.10
2018-06-23T21:07:13.472Z,15.00
2018-06-23T21:11:16.824Z,15.00
2018-06-23T21:15:20.168Z,15.00
2018-06-23T21:19:23.528Z,15.00
2018-06-23T21:23:26.826Z,14.90
2018-06-23T21:27:30.176Z,14.90
2018-06-23T21:31:33.512Z,14.80
2018-06-23T21:35:36.853Z,14.80
2018-06-23T21:39:40.178Z,14.70
2018-06-23T21:43:43.778Z,14.60
2018-06-23T21:47:47.304Z,14.60
2018-06-23T21:51:50.926Z,14.50
2018-06-23T21:55:54.316Z,14.50
2018-06-23T22:00:00.025Z,14.40
2018-06-23T22:04:03.389Z,14.40
2018-06-23T22:08:07.741Z,14.40
2018-06-23T22:12:11.076Z,14.40
2018-06-23T22:16:14.415Z,14.30
2018-06-23T22:20:19.414Z,14.30
2018-06-23T22:24:22.839Z,14.20
2018-06-23T22:28:26.222Z,14.20
2018-06-23T22:32:29.641Z,14.10
2018-06-23T22:36:33.122Z,14.10
2018-06-23T22:40:36.539Z,14.00
2018-06-23T22:44:39.940Z,13.90
2018-06-23T22:48:44.660Z,13.90
2018-06-23T22:52:48.071Z,13.80
2018-06-23T22:56:51.525Z,13.70
2018-06-23T23:00:54.892Z,13.70
2018-06-23T23:04:58.286Z,13.60
2018-06-23T23:09:01.631Z,13.60
2018-06-23T23:13:05.018Z,13.50
2018-06-23T23:17:08.398Z,13.50
2018-06-23T23:21:11.879Z,13.50
2018-06-23T23:25:15.228Z,13.50
2018-06-23T23:29:18.582Z,13.40
2018-06-23T23:33:21.958Z,13.40
2018-06-23T23:37:25.364Z,13.30
2018-06-23T23:41:28.787Z,13.30
2018-06-23T23:45:32.152Z,13.30
2018-06-23T23:49:35.576Z,13.20
2018-06-23T23:53:38.989Z,13.20
2018-06-23T23:57:42.430Z,13.20
